logo dgac
Viernes 01 de Julio del 2022
Buscar por aerodromo o helipuerto
Ingrese nombre de aeródromo, localidad o designador OACI:
TAF: TAF SCSE 011000Z 0112/0212 07004KT 9999 BKN015 OVC020 TX14/0118Z TN08/0210Z BECMG 0113/0115 27010KT SCT014 BECMG 0118/0120 BKN020 BECMG 0201/0203 28004KT SCT020
TAF del 01/07/2022 a las 10:00 UTC
Para mayor información visite www.meteochile.cl
Período de validez: desde el 01 a las 12:00 UTC hasta el 02 a las 12:00 UTC
Viento: dirección 070 grados, velocidad 4 nudos
Visibilidad: 10 km o más
Nubes: Nublado a 1500 pies sobre el nivel del aeródromo
Nubes: Cubierto a 2000 pies sobre el nivel del aeródromo
Temperatura máxima: 14ºC el 01 a las 18:00 UTC
Temperatura mínima: 8ºC el 02 a las 10:00 UTC
Se espera un cambio entre las 13:00 UTC del 01 y las 15:00 UTC del 01, :
Viento: dirección 270 grados, velocidad 10 nudos
Nubes: Nubosidad parcial a 1400 pies sobre el nivel del aeródromo
Se espera un cambio entre las 18:00 UTC del 01 y las 20:00 UTC del 01, :
Nubes: Nublado a 2000 pies sobre el nivel del aeródromo
Se espera un cambio entre las 01:00 UTC del 02 y las 03:00 UTC del 02, :
Viento: dirección 280 grados, velocidad 4 nudos
Nubes: Nubosidad parcial a 2000 pies sobre el nivel del aeródromo